Time;durP1;ratioP1;P1;durP2;ratioP2;P2;SDS_P1;SDS_P2;PMS_P1;PMS_P2;Temp;Humidity;BMP_temperature;BMP_pressure;BME280_temperature;BME280_humidity;BME280_pressure;Samples;Min_cycle;Max_cycle;Signal;HPM_P1;HPM_P2
2021/04/07 00:01:23;;;;;;;6.28;3.98;;;;;;;6.84;69.63;98951.20;1773327;79;21640;-72
2021/04/07 00:03:51;;;;;;;6.58;3.87;;;;;;;6.84;69.62;98954.39;1765687;79;22252;-72
2021/04/07 00:06:19;;;;;;;6.85;4.15;;;;;;;6.83;69.65;98950.16;1746256;80;21269;-72
2021/04/07 00:11:24;;;;;;;7.13;3.80;;;;;;;6.87;69.68;98947.21;1742029;79;22940;-74
2021/04/07 00:13:52;;;;;;;7.05;4.05;;;;;;;6.80;69.71;98940.33;1703733;83;21124;-73
2021/04/07 00:16:22;;;;;;;5.78;3.80;;;;;;;6.80;69.79;98941.66;1705520;82;21203;-73
2021/04/07 00:18:51;;;;;;;7.20;4.60;;;;;;;6.77;69.88;98936.89;1713546;83;20926;-74
2021/04/07 00:21:19;;;;;;;5.65;3.80;;;;;;;6.76;69.92;98935.31;1712321;83;21160;-74
2021/04/07 00:23:47;;;;;;;6.95;4.03;;;;;;;6.77;69.98;98931.59;1710421;83;21164;-74
2021/04/07 00:26:15;;;;;;;7.95;4.03;;;;;;;6.79;70.06;98935.31;1703991;83;21549;-74
2021/04/07 00:28:43;;;;;;;6.25;3.90;;;;;;;6.79;70.21;98935.31;1700332;83;21164;-72
2021/04/07 00:31:12;;;;;;;5.97;4.00;;;;;;;6.80;70.26;98932.38;1700425;83;21183;-73
2021/04/07 00:33:40;;;;;;;6.80;4.22;;;;;;;6.84;70.35;98934.48;1708156;82;21204;-73
2021/04/07 00:36:10;;;;;;;7.53;4.55;;;;;;;6.85;70.43;98930.25;1712042;83;21647;-73
2021/04/07 00:38:38;;;;;;;8.55;4.33;;;;;;;6.86;70.47;98925.19;1708604;82;21717;-74
2021/04/07 00:41:07;;;;;;;6.55;3.98;;;;;;;6.88;70.50;98932.36;1683902;83;23019;-74
2021/04/07 00:43:37;;;;;;;6.87;4.30;;;;;;;6.88;70.59;98924.40;1705476;83;21212;-74
2021/04/07 00:46:04;;;;;;;11.08;4.58;;;;;;;6.86;70.68;98922.54;1707458;83;21125;-74
2021/04/07 00:48:33;;;;;;;8.55;4.83;;;;;;;6.87;70.74;98919.34;1712082;83;21062;-72
2021/04/07 00:51:01;;;;;;;10.82;4.58;;;;;;;6.87;70.76;98924.12;1680249;83;21234;-71
2021/04/07 00:53:31;;;;;;;7.58;4.53;;;;;;;6.89;70.86;98918.55;1712286;82;21139;-72
2021/04/07 00:55:58;;;;;;;8.55;4.70;;;;;;;6.90;70.93;98918.80;1687245;83;21154;-73
2021/04/07 00:58:27;;;;;;;8.98;4.67;;;;;;;6.93;70.97;98924.36;1702730;83;21168;-74
2021/04/07 01:00:55;;;;;;;7.28;4.83;;;;;;;6.92;71.00;98919.34;1701077;83;21172;-74
2021/04/07 01:03:23;;;;;;;8.75;4.72;;;;;;;6.94;71.04;98919.84;1703014;83;21505;-72
2021/04/07 01:05:54;;;;;;;8.70;4.80;;;;;;;6.95;71.06;98922.78;1711974;82;21206;-73
2021/04/07 01:08:22;;;;;;;8.63;5.10;;;;;;;6.96;71.10;98919.05;1704310;83;21497;-73
2021/04/07 01:10:51;;;;;;;8.38;4.95;;;;;;;6.99;71.19;98925.14;1702816;83;21228;-72
2021/04/07 01:13:19;;;;;;;8.48;5.30;;;;;;;6.98;71.28;98920.37;1672556;84;21200;-72
2021/04/07 01:15:48;;;;;;;8.13;4.90;;;;;;;7.00;71.37;98919.55;1700674;83;21120;-72
2021/04/07 01:18:17;;;;;;;9.15;5.80;;;;;;;7.02;71.48;98917.95;1695671;84;21232;-73
2021/04/07 01:20:45;;;;;;;8.30;5.45;;;;;;;7.04;71.57;98915.30;1697773;84;21054;-71
2021/04/07 01:23:13;;;;;;;10.68;5.35;;;;;;;7.06;71.63;98925.63;1693411;82;21561;-73
2021/04/07 01:25:41;;;;;;;10.30;5.72;;;;;;;7.07;71.70;98921.11;1652547;85;21181;-73
2021/04/07 01:28:09;;;;;;;9.18;5.90;;;;;;;7.08;71.80;98919.52;1674349;84;21140;-73
2021/04/07 01:30:45;;;;;;;8.58;5.72;;;;;;;7.09;71.91;98921.10;1651611;84;21406;-73
2021/04/07 01:33:06;;;;;;;7.65;5.65;;;;;;;7.11;72.02;98919.48;1655544;85;21232;-73
2021/04/07 01:35:35;;;;;;;8.65;5.72;;;;;;;7.15;72.12;98917.35;1655269;85;21161;-73
2021/04/07 01:38:03;;;;;;;8.25;5.83;;;;;;;7.20;72.22;98918.64;1658055;84;21114;-72
2021/04/07 01:40:32;;;;;;;8.10;5.60;;;;;;;7.25;72.34;98919.95;1649880;86;21181;-74
2021/04/07 01:43:00;;;;;;;6.83;5.03;;;;;;;7.27;72.43;98920.48;1651173;84;21220;-74
2021/04/07 01:45:30;;;;;;;7.60;5.58;;;;;;;7.31;72.54;98919.93;1646770;86;21209;-74
2021/04/07 01:47:58;;;;;;;9.95;5.42;;;;;;;7.33;72.67;98915.91;1666936;85;21170;-75
2021/04/07 01:50:26;;;;;;;9.15;5.70;;;;;;;7.33;72.82;98915.12;1656193;86;21121;-74
2021/04/07 01:52:54;;;;;;;9.28;5.80;;;;;;;7.34;72.92;98920.17;1655774;84;21663;-73
2021/04/07 01:55:23;;;;;;;9.45;5.65;;;;;;;7.35;73.02;98911.66;1688463;84;21139;-73
2021/04/07 01:57:53;;;;;;;10.15;6.00;;;;;;;7.34;73.16;98909.55;1697943;82;21196;-71
2021/04/07 02:00:22;;;;;;;9.63;6.20;;;;;;;7.35;73.28;98913.78;1688728;84;21693;-72
2021/04/07 02:02:50;;;;;;;9.58;6.22;;;;;;;7.35;73.40;98907.68;1686155;82;21082;-72
2021/04/07 02:05:18;;;;;;;8.53;5.95;;;;;;;7.32;73.46;98899.72;1693720;83;21185;-74
2021/04/07 02:07:47;;;;;;;8.55;5.40;;;;;;;7.29;73.64;98898.41;1688513;84;22135;-74
2021/04/07 02:10:16;;;;;;;9.85;6.08;;;;;;;7.20;73.80;98891.30;1699016;82;21891;-74
2021/04/07 02:12:55;;;;;;;9.18;5.70;;;;;;;7.13;74.06;98882.30;1693124;84;21093;-72
2021/04/07 02:15:25;;;;;;;10.72;7.58;;;;;;;7.10;74.29;98880.73;1691954;83;21620;-74
2021/04/07 02:17:55;;;;;;;11.93;8.60;;;;;;;7.02;74.45;98872.83;1697144;82;21168;-74
2021/04/07 02:20:23;;;;;;;14.45;8.90;;;;;;;6.96;74.42;98869.94;1694519;83;21422;-74
2021/04/07 02:22:52;;;;;;;14.43;9.18;;;;;;;6.84;74.51;98862.30;1689232;83;21192;-73
2021/04/07 02:25:19;;;;;;;11.85;9.18;;;;;;;6.79;74.65;98861.80;1690229;83;21157;-74
2021/04/07 02:27:47;;;;;;;12.82;9.75;;;;;;;6.72;74.86;98863.17;1697989;84;21125;-74
2021/04/07 02:30:17;;;;;;;13.83;11.00;;;;;;;6.63;74.80;98860.82;1697758;82;21714;-74
2021/04/07 02:32:46;;;;;;;13.08;10.13;;;;;;;6.56;74.69;98859.25;1701070;84;22274;-74
2021/04/07 02:35:14;;;;;;;13.78;10.20;;;;;;;6.51;74.59;98853.17;1696530;83;21189;-75
2021/04/07 02:37:42;;;;;;;13.15;10.00;;;;;;;6.39;74.60;98840.23;1700628;84;21101;-74
2021/04/07 02:40:13;;;;;;;14.45;10.25;;;;;;;6.30;74.63;98839.20;1697774;83;21252;-74
2021/04/07 02:42:41;;;;;;;12.82;10.38;;;;;;;6.21;74.79;98838.95;1698223;83;21084;-73
2021/04/07 02:45:14;;;;;;;15.35;11.22;;;;;;;6.14;75.02;98834.47;1699221;83;21473;-77
2021/04/07 02:47:51;;;;;;;12.68;10.78;;;;;;;6.11;75.29;98836.34;1699331;83;21097;-74
2021/04/07 02:50:20;;;;;;;13.20;10.82;;;;;;;6.04;75.47;98833.97;1698689;84;21149;-74
2021/04/07 02:52:56;;;;;;;12.53;10.23;;;;;;;6.00;75.59;98842.73;1696565;82;21082;-75
2021/04/07 02:55:42;;;;;;;12.40;9.65;;;;;;;5.94;75.69;98853.08;1692691;83;21133;-75
2021/04/07 02:58:10;;;;;;;10.93;8.83;;;;;;;5.83;75.80;98866.31;1694602;83;21275;-74
2021/04/07 03:00:39;;;;;;;10.53;9.03;;;;;;;5.73;75.92;98875.60;1639875;86;21612;-74
2021/04/07 03:03:09;;;;;;;10.40;8.75;;;;;;;5.62;76.09;98878.76;1692670;84;21545;-74
2021/04/07 03:05:45;;;;;;;11.22;9.30;;;;;;;5.55;76.39;98892.02;1704202;82;21153;-74
2021/04/07 03:08:33;;;;;;;11.57;8.80;;;;;;;5.48;76.76;98897.57;1767579;79;22999;-71
2021/04/07 03:11:01;;;;;;;11.15;8.95;;;;;;;5.35;77.01;98910.00;1757398;80;21192;-72
2021/04/07 03:13:29;;;;;;;11.12;9.73;;;;;;;5.27;77.43;98916.62;1760693;81;22334;-71
2021/04/07 03:15:57;;;;;;;11.10;8.65;;;;;;;5.17;77.83;98924.00;1755801;80;21179;-71
2021/04/07 03:18:25;;;;;;;9.85;8.48;;;;;;;5.07;78.05;98938.53;1766300;80;21525;-71
2021/04/07 03:20:53;;;;;;;10.20;8.08;;;;;;;5.03;78.44;98944.06;1735940;81;21211;-73
2021/04/07 03:23:20;;;;;;;9.90;8.30;;;;;;;4.96;78.67;98944.83;1770231;80;21140;-71
2021/04/07 03:25:49;;;;;;;11.40;9.08;;;;;;;4.92;78.83;98961.75;1777975;79;21197;-72
2021/04/07 03:28:17;;;;;;;11.05;8.90;;;;;;;4.84;79.06;98958.83;1757577;80;21093;-72
2021/04/07 03:30:51;;;;;;;12.30;9.15;;;;;;;4.77;79.28;98958.24;1769369;79;21069;-71
2021/04/07 03:33:25;;;;;;;10.75;9.43;;;;;;;4.72;79.73;98976.22;1750959;80;21540;-71
2021/04/07 03:35:53;;;;;;;11.75;8.70;;;;;;;4.66;79.82;98987.82;1740457;81;21185;-72
2021/04/07 03:38:21;;;;;;;9.95;8.40;;;;;;;4.67;80.05;98988.08;1789848;79;21158;-71
2021/04/07 03:40:51;;;;;;;10.45;8.05;;;;;;;4.66;80.18;98993.11;1775563;80;21199;-71
2021/04/07 03:43:21;;;;;;;11.50;8.45;;;;;;;4.62;80.26;98993.36;1765103;79;21234;-71
2021/04/07 03:45:52;;;;;;;11.10;8.15;;;;;;;4.62;80.28;98986.75;1762976;79;21187;-72
2021/04/07 03:48:25;;;;;;;11.70;7.80;;;;;;;4.66;80.31;98993.11;1769148;80;21137;-71
2021/04/07 03:51:00;;;;;;;11.80;8.20;;;;;;;4.74;80.11;98988.67;1795443;77;22414;-72
2021/04/07 03:53:28;;;;;;;10.30;7.45;;;;;;;4.70;79.94;98988.39;1795168;78;21497;-72
2021/04/07 03:55:57;;;;;;;9.30;6.58;;;;;;;4.71;79.74;98987.86;1787264;78;21416;-72
2021/04/07 03:58:25;;;;;;;8.93;6.67;;;;;;;4.72;79.54;98986.80;1759009;80;21664;-73
2021/04/07 04:00:54;;;;;;;8.38;6.40;;;;;;;4.68;79.19;98990.48;1739386;80;21584;-73
2021/04/07 04:03:22;;;;;;;8.78;5.90;;;;;;;4.64;79.09;98979.34;1765452;80;21548;-71
2021/04/07 04:05:50;;;;;;;9.08;6.08;;;;;;;4.60;78.89;98980.91;1825836;77;22431;-73
2021/04/07 04:08:18;;;;;;;8.78;6.15;;;;;;;4.60;78.82;98974.30;1823178;77;21356;-71
2021/04/07 04:10:46;;;;;;;10.65;6.72;;;;;;;4.61;78.65;98978.55;1769086;79;21144;-71
2021/04/07 04:13:17;;;;;;;8.90;6.45;;;;;;;4.61;78.58;98972.73;1780030;79;21131;-71
2021/04/07 04:15:45;;;;;;;10.80;6.33;;;;;;;4.60;78.49;98970.33;1768431;79;21200;-72
2021/04/07 04:18:13;;;;;;;9.98;6.60;;;;;;;4.62;78.45;98973.52;1753728;79;21164;-74
2021/04/07 04:20:42;;;;;;;9.60;6.12;;;;;;;4.62;78.38;98976.17;1788859;79;21275;-73
2021/04/07 04:23:10;;;;;;;9.23;5.78;;;;;;;4.61;78.47;98975.91;1768274;79;21187;-73
2021/04/07 04:25:38;;;;;;;10.53;6.50;;;;;;;4.57;78.52;98980.88;1767814;79;21219;-70
2021/04/07 04:28:07;;;;;;;10.65;6.72;;;;;;;4.52;78.67;98989.33;1776840;79;21597;-73
2021/04/07 04:30:35;;;;;;;10.48;5.62;;;;;;;4.56;78.82;98992.52;1766034;80;21207;-70
2021/04/07 04:33:04;;;;;;;11.22;7.22;;;;;;;4.57;78.89;98986.70;1823262;77;21250;-71
2021/04/07 04:35:32;;;;;;;9.43;5.83;;;;;;;4.55;78.96;98991.47;1771328;80;21675;-72
2021/04/07 04:38:00;;;;;;;9.98;6.10;;;;;;;4.52;79.06;98988.02;1769597;79;21166;-72
2021/04/07 04:40:28;;;;;;;11.43;6.58;;;;;;;4.52;79.12;98990.13;1775267;79;21048;-72
2021/04/07 04:42:57;;;;;;;9.50;6.35;;;;;;;4.51;79.09;98999.62;1769280;79;21159;-72
2021/04/07 04:45:25;;;;;;;8.43;5.80;;;;;;;4.50;79.15;99002.00;1769110;79;22469;-73
2021/04/07 04:47:53;;;;;;;10.15;6.42;;;;;;;4.51;79.20;99006.23;1792178;79;21234;-71
2021/04/07 04:50:22;;;;;;;9.28;5.95;;;;;;;4.48;79.21;99011.52;1781340;79;21132;-72
2021/04/07 04:52:49;;;;;;;8.20;5.55;;;;;;;4.44;79.21;99016.53;1833057;77;21086;-72
2021/04/07 04:55:18;;;;;;;7.35;4.85;;;;;;;4.43;79.29;99019.41;1823413;77;21060;-71
2021/04/07 04:57:46;;;;;;;9.35;5.70;;;;;;;4.41;79.36;99011.75;1771085;79;21212;-71
2021/04/07 05:00:17;;;;;;;7.15;5.30;;;;;;;4.40;79.34;99010.13;1766301;80;21205;-71
2021/04/07 05:02:46;;;;;;;7.33;5.22;;;;;;;4.42;79.26;99004.08;1778826;79;21552;-71
2021/04/07 05:05:15;;;;;;;6.87;4.95;;;;;;;4.43;79.15;99002.22;1761116;80;21651;-71
2021/04/07 05:07:42;;;;;;;7.03;4.75;;;;;;;4.41;78.91;99005.14;1765832;80;21647;-72
2021/04/07 05:10:12;;;;;;;6.42;4.67;;;;;;;4.34;78.92;99007.70;1769613;79;21415;-72
2021/04/07 05:12:40;;;;;;;6.12;4.25;;;;;;;4.31;79.10;99009.03;1759030;80;21097;-72
2021/04/07 05:15:12;;;;;;;5.62;4.17;;;;;;;4.28;79.22;99016.14;1826035;77;21181;-71
2021/04/07 05:17:40;;;;;;;7.90;5.12;;;;;;;4.27;79.29;99021.67;1801335;76;21153;-71
2021/04/07 05:20:10;;;;;;;7.87;4.90;;;;;;;4.28;79.43;99024.58;1830102;77;21219;-71
2021/04/07 05:22:38;;;;;;;6.85;4.50;;;;;;;4.25;79.42;99027.22;1828512;77;21193;-71
2021/04/07 05:25:08;;;;;;;7.28;4.80;;;;;;;4.25;79.63;99042.28;1831893;77;21253;-71
2021/04/07 05:27:35;;;;;;;6.22;4.72;;;;;;;4.28;79.76;99047.86;1769040;79;21579;-71
2021/04/07 05:30:26;;;;;;;7.17;5.95;;;;;;;4.32;79.62;99056.87;1770525;79;21250;-71
2021/04/07 05:32:54;;;;;;;6.83;5.33;;;;;;;4.34;79.38;99049.47;1727919;81;21160;-71
2021/04/07 05:35:22;;;;;;;8.30;6.25;;;;;;;4.36;79.30;99052.67;1737491;81;21256;-71
2021/04/07 05:37:49;;;;;;;6.05;5.10;;;;;;;4.37;79.32;99050.28;1738227;81;21199;-71
2021/04/07 05:40:18;;;;;;;6.60;5.80;;;;;;;4.37;78.94;99059.54;1743269;81;21222;-71
2021/04/07 05:42:47;;;;;;;6.00;5.15;;;;;;;4.34;78.71;99069.83;1738278;81;21234;-71
2021/04/07 05:45:15;;;;;;;5.80;4.70;;;;;;;4.31;78.51;99070.33;1742755;81;21207;-70
2021/04/07 05:47:43;;;;;;;6.42;5.10;;;;;;;4.25;78.39;99065.55;1745429;81;22682;-71
2021/04/07 05:50:11;;;;;;;6.72;5.10;;;;;;;4.17;78.41;99069.95;1701647;82;21200;-71
2021/04/07 05:52:39;;;;;;;6.00;5.00;;;;;;;4.10;78.63;99070.69;1759530;79;21598;-70
2021/04/07 05:55:09;;;;;;;5.67;4.55;;;;;;;4.05;78.81;99066.66;1758470;79;21264;-71
2021/04/07 05:57:37;;;;;;;6.40;4.30;;;;;;;3.99;79.24;99067.95;1750603;81;21582;-71
2021/04/07 06:00:06;;;;;;;5.70;4.55;;;;;;;3.92;79.52;99073.97;1757912;79;21569;-71
2021/04/07 06:02:35;;;;;;;6.22;4.25;;;;;;;3.87;79.67;99077.07;1766205;81;21200;-70
2021/04/07 06:05:04;;;;;;;5.90;4.05;;;;;;;3.79;79.92;99075.68;1750666;79;21182;-70
2021/04/07 06:07:31;;;;;;;5.50;4.25;;;;;;;3.75;80.21;99075.38;1761383;79;21180;-70
2021/04/07 06:10:00;;;;;;;5.95;4.47;;;;;;;3.74;80.38;99083.53;1758132;79;21657;-71
2021/04/07 06:12:28;;;;;;;7.08;5.20;;;;;;;3.76;80.59;99080.14;1757491;81;21415;-71
2021/04/07 06:14:56;;;;;;;5.53;4.25;;;;;;;3.85;80.70;99084.44;1762695;79;21214;-69
2021/04/07 06:17:23;;;;;;;5.72;3.90;;;;;;;3.86;80.62;99080.77;1761337;81;21201;-70
2021/04/07 06:19:51;;;;;;;5.20;3.90;;;;;;;3.86;80.59;99089.48;1699646;82;21205;-71
2021/04/07 06:22:20;;;;;;;5.55;4.35;;;;;;;3.83;80.35;99098.43;1715019;81;21155;-71
2021/04/07 06:24:48;;;;;;;6.67;4.87;;;;;;;3.74;80.28;99096.74;1764399;79;21804;-71
2021/04/07 06:27:15;;;;;;;6.67;5.45;;;;;;;3.70;80.38;99095.64;1754254;81;21203;-71
2021/04/07 06:29:44;;;;;;;6.58;4.80;;;;;;;3.64;80.45;99091.35;1760777;79;21166;-70
2021/04/07 06:32:11;;;;;;;6.78;4.97;;;;;;;3.61;80.32;99094.48;1760679;79;21065;-71
2021/04/07 06:34:40;;;;;;;6.45;5.00;;;;;;;3.51;80.31;99082.76;1763899;81;21194;-70
2021/04/07 06:37:08;;;;;;;6.10;5.08;;;;;;;3.52;80.44;99090.97;1757512;81;22575;-70
2021/04/07 06:39:37;;;;;;;6.50;5.12;;;;;;;3.50;80.47;99090.41;1759488;79;21170;-71
2021/04/07 06:42:07;;;;;;;7.00;5.75;;;;;;;3.49;80.53;99095.42;1757444;79;21161;-71
2021/04/07 06:44:35;;;;;;;7.45;5.90;;;;;;;3.48;80.55;99091.16;1765385;79;21198;-71
2021/04/07 06:47:05;;;;;;;6.20;5.35;;;;;;;3.51;80.61;99089.88;1763203;79;21181;-71
2021/04/07 06:49:35;;;;;;;5.95;5.12;;;;;;;3.53;80.73;99081.20;1758405;79;21448;-70
2021/04/07 06:52:04;;;;;;;7.65;6.00;;;;;;;3.55;80.65;99083.58;1761459;79;21205;-71
2021/04/07 06:54:32;;;;;;;7.00;6.30;;;;;;;3.58;80.69;99088.38;1764336;80;21189;-71
2021/04/07 06:56:59;;;;;;;7.70;6.30;;;;;;;3.57;80.67;99094.70;1753687;81;21700;-71
2021/04/07 06:59:28;;;;;;;7.00;6.20;;;;;;;3.53;80.62;99090.45;1764959;81;21273;-71
2021/04/07 07:01:56;;;;;;;6.42;5.35;;;;;;;3.48;80.55;99095.13;1729172;81;21222;-70
2021/04/07 07:04:26;;;;;;;6.58;5.00;;;;;;;3.46;80.55;99097.76;1736824;81;21718;-70
2021/04/07 07:06:54;;;;;;;7.00;6.05;;;;;;;3.41;80.64;99102.44;1764069;81;21638;-71
2021/04/07 07:09:22;;;;;;;8.08;6.30;;;;;;;3.40;80.69;99095.57;1756172;81;21115;-71
2021/04/07 07:11:51;;;;;;;8.83;6.90;;;;;;;3.40;80.70;99098.21;1756818;79;21141;-71
2021/04/07 07:14:20;;;;;;;8.05;6.85;;;;;;;3.42;80.73;99093.98;1764376;81;21377;-72
2021/04/07 07:16:51;;;;;;;8.68;6.37;;;;;;;3.46;80.83;99095.12;1766576;79;21227;-72
2021/04/07 07:19:27;;;;;;;6.25;5.58;;;;;;;3.54;80.92;99094.67;1757453;81;21291;-71
2021/04/07 07:22:00;;;;;;;5.37;4.28;;;;;;;3.63;81.00;99108.25;1761058;79;21122;-71
2021/04/07 07:24:39;;;;;;;4.67;3.77;;;;;;;3.73;80.68;99107.04;1755866;81;21205;-70
2021/04/07 07:27:08;;;;;;;5.00;3.90;;;;;;;3.78;80.60;99112.89;1750173;79;21228;-71
2021/04/07 07:29:39;;;;;;;6.58;4.45;;;;;;;3.82;80.56;99117.45;1745192;81;21685;-70
2021/04/07 07:32:11;;;;;;;3.90;3.25;;;;;;;3.85;80.41;99120.91;1757902;79;21613;-70
2021/04/07 07:34:41;;;;;;;5.53;4.78;;;;;;;3.85;80.34;99114.31;1760114;80;21177;-70
2021/04/07 07:37:09;;;;;;;6.53;5.17;;;;;;;3.83;80.05;99122.20;1759317;79;21173;-71
2021/04/07 07:39:37;;;;;;;5.80;4.92;;;;;;;3.80;79.87;99123.48;1753400;79;21385;-72
2021/04/07 07:42:09;;;;;;;7.62;5.92;;;;;;;3.78;79.85;99115.00;1755049;79;21225;-71
2021/04/07 07:44:39;;;;;;;7.70;6.35;;;;;;;3.78;79.92;99116.32;1762510;81;21180;-71
2021/04/07 07:47:21;;;;;;;7.65;6.45;;;;;;;3.80;79.89;99105.00;1764109;79;21178;-71
2021/04/07 07:50:04;;;;;;;8.00;6.40;;;;;;;3.82;79.91;99105.56;1748757;81;21262;-71
2021/04/07 07:52:35;;;;;;;8.08;6.45;;;;;;;3.85;79.95;99099.78;1751536;79;21372;-71
2021/04/07 07:55:17;;;;;;;7.78;6.97;;;;;;;3.89;79.72;99098.23;1759884;80;21185;-72
2021/04/07 07:57:53;;;;;;;8.50;7.35;;;;;;;3.87;79.76;99102.16;1764422;79;21170;-71
2021/04/07 08:00:25;;;;;;;7.67;6.25;;;;;;;3.90;80.02;99103.78;1748751;79;21242;-71
2021/04/07 08:02:54;;;;;;;5.90;4.80;;;;;;;3.96;80.12;99094.08;1757753;79;21750;-71
2021/04/07 08:05:25;;;;;;;5.42;4.33;;;;;;;4.03;79.88;99088.06;1752852;81;22372;-71
2021/04/07 08:07:53;;;;;;;6.17;4.62;;;;;;;4.08;79.65;99089.45;1756791;79;21709;-71
2021/04/07 08:10:22;;;;;;;5.95;4.25;;;;;;;4.10;79.60;99091.30;1748985;79;21147;-70
2021/04/07 08:12:50;;;;;;;5.75;4.17;;;;;;;4.12;79.43;99098.98;1679451;82;21810;-71
2021/04/07 08:15:19;;;;;;;5.45;3.95;;;;;;;4.13;79.60;99097.41;1750771;79;21688;-70
2021/04/07 08:17:47;;;;;;;6.12;3.92;;;;;;;4.13;79.24;99091.33;1759146;81;22302;-71
2021/04/07 08:20:17;;;;;;;4.80;3.27;;;;;;;4.13;79.05;99083.40;1747260;80;21682;-70
2021/04/07 08:22:44;;;;;;;4.50;3.25;;;;;;;4.14;78.85;99087.09;1733161;81;21167;-70
2021/04/07 08:25:16;;;;;;;4.40;3.10;;;;;;;4.17;78.95;99091.88;1754311;79;21844;-70
2021/04/07 08:27:44;;;;;;;4.37;2.80;;;;;;;4.22;78.75;99091.15;1745948;79;21443;-71
2021/04/07 08:30:13;;;;;;;3.95;2.92;;;;;;;4.29;78.63;99094.37;1757502;79;21445;-71
2021/04/07 08:32:44;;;;;;;4.50;3.02;;;;;;;4.33;78.56;99092.82;1760475;79;21086;-71
2021/04/07 08:35:12;;;;;;;4.08;2.98;;;;;;;4.37;78.56;99097.87;1734620;80;21163;-72
2021/04/07 08:37:40;;;;;;;4.15;3.10;;;;;;;4.40;78.51;99105.30;1730829;81;21133;-70
2021/04/07 08:40:17;;;;;;;4.40;3.10;;;;;;;4.41;78.21;99104.27;1754906;79;21659;-70
2021/04/07 08:42:44;;;;;;;3.98;2.90;;;;;;;4.36;77.68;99107.39;1727246;79;21268;-70
2021/04/07 08:45:13;;;;;;;5.28;2.80;;;;;;;4.25;77.55;99107.83;1748664;79;21649;-71
2021/04/07 08:51:04;;;;;;;5.80;3.93;;;;;;;4.05;77.96;99103.16;1838423;77;22788;-71
2021/04/07 08:53:36;;;;;;;5.55;3.98;;;;;;;3.95;78.29;99097.77;1813243;77;26739;-70
2021/04/07 08:56:12;;;;;;;6.03;4.53;;;;;;;3.95;78.53;99110.45;1814953;77;21332;-70
2021/04/07 08:59:04;;;;;;;6.78;3.95;;;;;;;3.96;78.74;99097.51;1813949;77;21164;-70
2021/04/07 09:01:34;;;;;;;4.12;3.08;;;;;;;4.00;78.78;99114.45;1831720;78;21581;-70
2021/04/07 09:04:09;;;;;;;4.67;3.20;;;;;;;4.04;78.13;99123.20;1818875;77;21152;-69
2021/04/07 09:06:39;;;;;;;5.03;2.70;;;;;;;3.98;77.92;99117.06;1827212;77;21161;-71
2021/04/07 09:09:08;;;;;;;4.40;2.80;;;;;;;3.94;77.94;99115.44;1823043;77;21378;-70
2021/04/07 09:11:38;;;;;;;4.80;2.62;;;;;;;3.90;78.01;99118.31;1820285;77;21171;-71
2021/04/07 09:14:06;;;;;;;3.58;2.22;;;;;;;3.91;78.17;99121.22;1803437;78;21223;-71
2021/04/07 09:16:39;;;;;;;3.87;2.60;;;;;;;3.91;78.10;99125.17;1815140;78;21157;-71
2021/04/07 09:19:15;;;;;;;4.33;2.60;;;;;;;3.89;77.80;99127.81;1817151;77;21146;-70
2021/04/07 09:22:08;;;;;;;4.58;3.20;;;;;;;3.82;77.66;99134.61;1819938;78;21447;-70
2021/04/07 09:24:43;;;;;;;5.60;3.30;;;;;;;3.75;77.67;99136.62;1806243;77;21710;-70
2021/04/07 09:27:26;;;;;;;5.35;3.62;;;;;;;3.72;77.90;99135.30;1846288;77;21164;-71
2021/04/07 09:30:09;;;;;;;5.47;3.65;;;;;;;3.71;78.01;99119.15;1804057;79;21184;-70
2021/04/07 09:32:39;;;;;;;5.35;3.90;;;;;;;3.71;78.08;99110.44;1821384;77;21206;-70
2021/04/07 09:35:11;;;;;;;4.60;3.20;;;;;;;3.74;78.17;99116.55;1810021;77;21379;-70
2021/04/07 09:37:40;;;;;;;;;;;;;;;3.75;78.27;99115.49;1840190;76;21730;-71
2021/04/07 09:40:17;;;;;;;4.97;3.67;;;;;;;3.78;78.50;99110.25;1845368;77;20268;-72
2021/04/07 09:42:47;;;;;;;5.35;4.35;;;;;;;3.83;78.62;99110.31;1853096;76;21211;-72
2021/04/07 09:48:03;;;;;;;5.07;4.07;;;;;;;3.93;78.81;99108.57;1805272;77;28072;-71
2021/04/07 09:50:31;;;;;;;5.42;4.30;;;;;;;3.96;78.65;99119.96;1821903;78;21151;-70
2021/04/07 09:52:59;;;;;;;5.97;4.60;;;;;;;3.96;78.43;99118.64;1787904;79;21168;-71
2021/04/07 09:55:27;;;;;;;6.33;5.30;;;;;;;3.90;78.33;99126.23;1845937;77;21153;-71
2021/04/07 09:58:03;;;;;;;7.15;5.20;;;;;;;3.81;78.46;99115.83;1831449;77;21454;-70
2021/04/07 10:00:33;;;;;;;6.90;5.30;;;;;;;3.75;78.69;99114.99;1811764;78;21741;-70
2021/04/07 10:03:02;;;;;;;6.72;5.12;;;;;;;3.74;78.86;99119.98;1815293;78;21187;-71
2021/04/07 10:05:32;;;;;;;5.60;4.40;;;;;;;3.73;79.00;99120.24;1815069;77;21201;-71
2021/04/07 10:08:16;;;;;;;6.45;4.42;;;;;;;3.67;79.10;99131.26;1804829;78;21192;-71
2021/04/07 10:10:46;;;;;;;4.90;3.70;;;;;;;3.63;79.18;99129.38;1813724;78;21188;-70
2021/04/07 10:13:14;;;;;;;5.20;3.95;;;;;;;3.62;79.27;99135.17;1851572;77;21140;-70
2021/04/07 10:15:43;;;;;;;6.03;4.17;;;;;;;3.59;79.41;99136.19;1816680;77;21163;-70
2021/04/07 10:18:13;;;;;;;6.10;4.53;;;;;;;3.54;79.50;99142.19;1852339;76;21213;-71
2021/04/07 10:20:41;;;;;;;6.55;4.37;;;;;;;3.51;79.71;99144.79;1819915;78;21177;-70
2021/04/07 10:23:11;;;;;;;5.87;4.05;;;;;;;3.52;79.85;99160.93;1805592;78;21663;-70
2021/04/07 10:25:39;;;;;;;5.90;3.95;;;;;;;3.51;79.80;99154.03;1843155;76;21145;-72
2021/04/07 10:28:20;;;;;;;6.33;3.77;;;;;;;3.49;79.92;99146.89;1831901;77;21746;-71
2021/04/07 10:30:48;;;;;;;5.55;3.12;;;;;;;3.49;80.23;99143.47;1824893;78;21874;-70
2021/04/07 10:33:27;;;;;;;4.08;2.90;;;;;;;3.49;80.39;99150.86;1817305;77;21189;-71
2021/04/07 10:35:59;;;;;;;4.95;3.33;;;;;;;3.41;80.32;99161.03;1839638;77;21643;-70
2021/04/07 10:38:36;;;;;;;4.70;3.10;;;;;;;3.31;80.62;99151.13;1851491;77;21155;-71
2021/04/07 10:41:05;;;;;;;5.53;3.50;;;;;;;3.25;80.94;99149.46;1806119;78;21148;-71
2021/04/07 10:43:39;;;;;;;7.75;3.72;;;;;;;3.22;81.15;99144.14;1805483;77;21372;-71
2021/04/07 10:46:08;;;;;;;5.08;3.45;;;;;;;3.20;81.39;99141.49;1801693;78;21633;-71
2021/04/07 10:48:39;;;;;;;5.60;3.65;;;;;;;3.25;81.65;99130.99;1805264;78;21214;-70
2021/04/07 10:51:09;;;;;;;5.17;3.42;;;;;;;3.29;81.99;99125.50;1814015;78;21204;-71
2021/04/07 10:53:42;;;;;;;5.00;3.52;;;;;;;3.34;82.22;99118.98;1799081;78;21769;-71
2021/04/07 10:56:20;;;;;;;4.70;3.07;;;;;;;3.41;82.32;99124.08;1806959;78;22321;-70
2021/04/07 10:59:05;;;;;;;4.90;2.72;;;;;;;3.46;82.39;99133.39;1812821;78;21125;-71
2021/04/07 11:01:34;;;;;;;5.17;3.20;;;;;;;3.49;82.37;99137.66;1814016;77;21242;-70
2021/04/07 11:04:14;;;;;;;5.20;3.30;;;;;;;3.55;82.34;99130.58;1809398;78;21195;-71
2021/04/07 11:06:42;;;;;;;5.03;3.10;;;;;;;3.60;82.41;99121.94;1821590;77;21642;-71
2021/04/07 11:09:14;;;;;;;4.37;2.92;;;;;;;3.66;82.45;99132.31;1824183;78;21367;-71
2021/04/07 11:11:43;;;;;;;4.28;2.85;;;;;;;3.65;82.12;99125.94;1812379;77;21174;-70
2021/04/07 11:14:12;;;;;;;4.03;2.65;;;;;;;3.60;81.76;99133.81;1824006;77;21157;-70
2021/04/07 11:16:41;;;;;;;3.87;2.58;;;;;;;3.55;81.79;99145.63;1781705;78;21700;-71
2021/04/07 11:19:16;;;;;;;4.00;2.72;;;;;;;3.48;81.52;99140.00;1808614;77;21174;-71
2021/04/07 11:21:44;;;;;;;4.42;2.90;;;;;;;3.37;81.40;99135.65;1802779;78;21354;-70
2021/04/07 11:24:12;;;;;;;5.97;3.50;;;;;;;3.32;81.54;99132.13;1811742;77;21416;-71
2021/04/07 11:26:41;;;;;;;4.53;3.35;;;;;;;3.29;81.73;99132.09;1802584;79;21199;-70
2021/04/07 11:29:10;;;;;;;6.45;3.72;;;;;;;3.38;82.09;99138.55;1847214;77;21214;-70
2021/04/07 11:31:38;;;;;;;5.92;3.75;;;;;;;3.48;82.35;99137.36;1840946;77;22327;-70
2021/04/07 11:34:10;;;;;;;4.67;3.22;;;;;;;3.61;82.37;99133.56;1801412;79;21438;-71
2021/04/07 11:37:07;;;;;;;6.10;3.40;;;;;;;3.69;82.02;99129.18;1803129;79;21183;-71
2021/04/07 11:44:32;;;;;;;5.00;3.30;;;;;;;3.64;81.76;99131.75;1819917;77;20481;-71
2021/04/07 11:47:02;;;;;;;4.95;3.47;;;;;;;3.64;81.85;99133.59;1814292;77;21810;-70
2021/04/07 11:49:31;;;;;;;6.47;3.40;;;;;;;3.63;81.84;99146.53;1821820;78;21224;-71
2021/04/07 11:51:58;;;;;;;6.15;3.50;;;;;;;3.63;81.74;99139.93;1817698;78;21291;-71
2021/04/07 11:54:26;;;;;;;4.92;3.27;;;;;;;3.63;81.83;99138.61;1820138;77;21200;-74
2021/04/07 11:56:55;;;;;;;6.83;3.62;;;;;;;3.65;81.71;99144.42;1815547;77;21176;-71
2021/04/07 11:59:25;;;;;;;5.35;3.65;;;;;;;3.64;81.75;99151.55;1819783;78;21374;-70
2021/04/07 12:01:55;;;;;;;5.58;3.87;;;;;;;3.59;81.55;99142.27;1801399;77;21720;-71
2021/04/07 12:04:26;;;;;;;7.33;4.40;;;;;;;3.55;81.63;99149.05;1812648;79;21711;-71
2021/04/07 12:06:55;;;;;;;6.00;4.40;;;;;;;3.51;81.99;99154.03;1826680;77;21199;-70
2021/04/07 12:09:25;;;;;;;7.53;4.97;;;;;;;3.51;81.99;99154.03;1826284;78;21167;-71